Time;durP1;ratioP1;P1;durP2;ratioP2;P2;SDS_P1;SDS_P2;PMS_P1;PMS_P2;Temp;Humidity;BMP_temperature;BMP_pressure;BME280_temperature;BME280_humidity;BME280_pressure;Samples;Min_cycle;Max_cycle;Signal;HPM_P1;HPM_P2
2022/11/05 00:10:33;;;;;;;;;16.00;13.67;;;;;10.45;64.77;101348.94;4979952;28;45568;-73
2022/11/05 00:18:28;;;;;;;;;15.00;13.67;;;;;10.94;64.90;101440.53;4979229;28;45959;-73
2022/11/05 00:20:53;;;;;;;;;15.33;15.33;;;;;10.89;64.77;101434.75;4977402;28;45797;-72
2022/11/05 00:26:06;;;;;;;;;11.00;9.00;;;;;10.94;64.72;101448.50;4979018;28;45444;-71
2022/11/05 00:28:32;;;;;;;;;18.33;13.00;;;;;10.02;65.19;101291.34;4977248;28;47608;-72
2022/11/05 00:31:08;;;;;;;;;12.00;12.00;;;;;10.90;64.93;101439.09;4979252;28;45475;-72
2022/11/05 00:33:34;;;;;;;;;12.33;12.33;;;;;10.82;64.97;101422.97;4978110;28;45340;-72
2022/11/05 00:36:02;;;;;;;;;17.33;15.00;;;;;10.90;65.25;101439.09;4978573;28;45449;-72
2022/11/05 00:38:28;;;;;;;;;15.00;13.00;;;;;10.71;65.30;101405.22;4977937;28;46468;-73
2022/11/05 00:40:53;;;;;;;;;15.00;13.33;;;;;10.89;65.60;101448.06;4978494;28;45431;-71
2022/11/05 00:46:03;;;;;;;;;20.67;14.33;;;;;10.86;65.37;101451.81;4978934;28;45239;-72
2022/11/05 00:51:12;;;;;;;;;17.00;14.00;;;;;10.26;65.65;101381.50;4979174;28;45321;-72
2022/11/05 00:53:37;;;;;;;;;12.67;11.33;;;;;10.73;65.38;101455.63;4977229;28;45427;-71
2022/11/05 00:56:03;;;;;;;;;10.67;10.67;;;;;10.68;65.41;101437.41;4978600;28;45434;-73
2022/11/05 00:58:28;;;;;;;;;10.33;10.33;;;;;10.81;65.22;101458.47;4978695;28;46470;-71
2022/11/05 01:00:56;;;;;;;;;15.67;12.00;;;;;9.94;65.57;101314.19;4978255;28;45849;-72
2022/11/05 01:03:27;;;;;;;;;14.67;11.67;;;;;10.80;65.48;101462.13;4978983;28;45497;-73
2022/11/05 01:05:56;;;;;;;;;17.00;12.67;;;;;10.83;65.56;101461.88;4978728;28;45513;-69
2022/11/05 01:08:23;;;;;;;;;14.33;11.67;;;;;9.90;65.42;101286.19;4978661;28;46692;-72
2022/11/05 01:10:51;;;;;;;;;10.00;10.00;;;;;10.83;64.82;101451.25;4978635;28;45279;-73
2022/11/05 01:13:19;;;;;;;;;10.67;10.00;;;;;10.89;65.44;101451.56;4994532;28;45528;-71
2022/11/05 01:15:45;;;;;;;;;20.00;15.00;;;;;10.80;65.58;101436.34;4978942;28;45453;-73
2022/11/05 01:18:11;;;;;;;;;18.33;16.00;;;;;10.79;65.66;101433.84;4976824;28;48139;-72
2022/11/05 01:20:37;;;;;;;;;25.33;25.00;;;;;10.87;65.24;101450.00;4992839;28;45834;-73
2022/11/05 01:23:02;;;;;;;;;10.67;10.67;;;;;10.87;64.81;101458.84;4976891;28;45486;-72
2022/11/05 01:25:28;;;;;;;;;17.00;14.33;;;;;10.86;65.09;101459.81;4978291;28;45405;-72
2022/11/05 01:27:53;;;;;;;;;12.00;11.00;;;;;10.85;64.63;101459.94;4977759;28;45795;-73
2022/11/05 01:30:19;;;;;;;;;13.33;11.00;;;;;10.84;65.25;101447.63;4978261;28;45323;-73
2022/11/05 01:32:44;;;;;;;;;11.33;11.33;;;;;10.48;64.88;101388.53;4993597;28;45527;-73
2022/11/05 01:35:13;;;;;;;;;11.67;10.00;;;;;10.50;64.88;101405.22;4978808;28;45583;-71
2022/11/05 01:37:39;;;;;;;;;14.67;12.00;;;;;10.68;64.97;101431.25;4993196;28;46891;-71
2022/11/05 01:40:07;;;;;;;;;13.00;12.00;;;;;10.07;64.77;101330.81;4977531;28;45532;-73
2022/11/05 01:42:33;;;;;;;;;13.67;11.67;;;;;10.65;65.42;101427.88;4993105;28;45435;-73
2022/11/05 01:45:26;;;;;;;;;17.00;15.67;;;;;10.72;65.44;101444.16;4977119;28;45289;-73
2022/11/05 01:48:07;;;;;;;;;13.00;12.33;;;;;10.54;65.29;101425.25;4992871;28;45711;-72
2022/11/05 01:50:38;;;;;;;;;10.67;10.67;;;;;10.71;65.32;101458.41;4992724;28;45333;-72
2022/11/05 01:53:15;;;;;;;;;13.00;11.00;;;;;10.69;65.45;101454.19;4992720;28;45487;-72
2022/11/05 01:55:46;;;;;;;;;12.67;12.67;;;;;9.76;65.46;101303.25;4992788;28;45310;-73
2022/11/05 01:58:17;;;;;;;;;12.33;11.00;;;;;10.07;65.60;101357.38;4977391;28;46528;-71
2022/11/05 02:00:43;;;;;;;;;11.33;10.33;;;;;10.48;65.31;101425.75;4977545;28;45310;-72
2022/11/05 02:03:08;;;;;;;;;14.67;14.67;;;;;10.32;65.18;101398.75;4978231;28;45390;-70
2022/11/05 02:05:34;;;;;;;;;12.67;12.33;;;;;10.66;65.56;101468.59;4978232;28;45243;-71
2022/11/05 02:07:59;;;;;;;;;11.33;11.00;;;;;10.65;65.77;101469.56;4993312;28;47386;-73
2022/11/05 02:10:26;;;;;;;;;12.33;12.33;;;;;10.46;66.16;101427.72;4981563;28;45436;-72
2022/11/05 02:12:52;;;;;;;;;14.00;13.67;;;;;10.36;65.63;101400.19;4980817;28;45385;-74
2022/11/05 02:15:31;;;;;;;;;10.67;10.00;;;;;9.60;65.82;101281.56;4995971;28;45323;-71
2022/11/05 02:18:18;;;;;;;;;11.00;9.67;;;;;9.88;66.07;101350.06;4980689;28;46481;-71
2022/11/05 02:21:33;;;;;;;;;9.00;8.00;;;;;10.45;66.06;101436.66;4980669;28;45514;-71
2022/11/05 02:24:18;;;;;;;;;12.00;10.33;;;;;10.49;65.88;101432.75;4940699;28;45404;-73
2022/11/05 02:26:53;;;;;;;;;16.67;10.67;;;;;10.56;66.02;101455.22;4981461;28;45391;-72
2022/11/05 02:29:47;;;;;;;;;9.00;6.33;;;;;10.53;66.23;101447.50;4979319;28;48516;-72
2022/11/05 02:32:24;;;;;;;;;11.00;10.00;;;;;10.48;65.75;101444.38;4944258;28;45296;-71
2022/11/05 02:35:16;;;;;;;;;12.00;10.00;;;;;10.57;65.89;101461.38;4981827;28;45371;-71
2022/11/05 02:37:51;;;;;;;;;8.33;7.00;;;;;10.42;65.89;101458.19;4983508;28;45387;-72
2022/11/05 02:40:30;;;;;;;;;10.67;9.00;;;;;10.52;65.86;101469.72;4980414;28;45546;-72
2022/11/05 02:43:15;;;;;;;;;8.00;8.00;;;;;10.46;66.55;101464.94;4980324;28;45469;-73
2022/11/05 02:46:14;;;;;;;;;13.00;11.67;;;;;10.44;66.36;101464.22;4980530;28;45228;-72
2022/11/05 02:48:57;;;;;;;;;10.00;8.00;;;;;10.26;66.31;101441.78;4980586;28;45572;-71
2022/11/05 02:51:31;;;;;;;;;11.00;8.67;;;;;10.37;66.83;101465.66;4978721;28;47511;-71
2022/11/05 02:54:22;;;;;;;;;7.33;7.33;;;;;10.29;66.59;101452.16;4980018;28;45418;-70
2022/11/05 02:56:51;;;;;;;;;7.67;7.67;;;;;10.29;66.84;101441.53;4980077;28;45246;-70
2022/11/05 02:59:19;;;;;;;;;13.33;9.67;;;;;9.66;66.46;101342.16;4980379;28;45313;-71
2022/11/05 03:01:46;;;;;;;;;9.00;9.00;;;;;10.40;66.32;101454.78;4979903;28;46738;-71
2022/11/05 03:04:15;;;;;;;;;11.00;8.67;;;;;10.40;66.15;101452.13;4979354;28;45542;-72
2022/11/05 03:06:52;;;;;;;;;7.00;7.00;;;;;10.36;66.54;101450.69;4980020;28;45258;-72
2022/11/05 03:09:40;;;;;;;;;6.00;6.00;;;;;10.28;66.61;101430.06;4980029;28;45374;-71
2022/11/05 03:12:39;;;;;;;;;9.67;6.67;;;;;10.39;66.69;101447.78;4980157;28;45805;-72
2022/11/05 03:15:23;;;;;;;;;8.33;7.33;;;;;10.42;66.54;101444.88;4995051;28;45527;-71
2022/11/05 03:18:06;;;;;;;;;10.00;7.67;;;;;10.45;66.47;101447.28;4979740;28;45452;-70
2022/11/05 03:20:49;;;;;;;;;9.00;7.33;;;;;10.42;66.56;101452.03;4979845;28;45464;-71
2022/11/05 03:23:29;;;;;;;;;8.67;8.67;;;;;10.46;66.53;101456.94;4994425;28;48191;-73
2022/11/05 03:26:02;;;;;;;;;9.67;8.00;;;;;10.06;66.97;101388.41;4979972;28;45206;-71
2022/11/05 03:28:31;;;;;;;;;14.33;8.67;;;;;9.30;67.46;101274.28;4979858;28;45236;-70
2022/11/05 03:30:57;;;;;;;;;10.00;7.67;;;;;10.39;67.17;101453.09;4981653;28;45454;-70
2022/11/05 03:33:28;;;;;;;;;8.67;7.00;;;;;10.37;67.63;101449.72;4979148;28;46111;-70
2022/11/05 03:35:57;;;;;;;;;10.33;8.00;;;;;10.31;67.37;101429.81;4979290;28;45681;-72
2022/11/05 03:38:33;;;;;;;;;7.00;5.67;;;;;10.27;67.27;101428.38;4979845;28;45428;-71
2022/11/05 03:41:04;;;;;;;;;8.00;8.00;;;;;9.43;67.15;101273.19;4995505;28;45991;-70
2022/11/05 03:43:35;;;;;;;;;10.33;8.67;;;;;9.43;66.90;101272.34;4979269;28;47100;-71
2022/11/05 03:46:07;;;;;;;;;6.33;6.00;;;;;10.46;66.75;101437.50;4979255;28;45381;-70
2022/11/05 03:48:40;;;;;;;;;8.00;8.00;;;;;10.40;66.81;101444.13;4994250;28;45534;-71
2022/11/05 03:51:50;;;;;;;;;9.00;7.00;;;;;10.34;67.34;101432.19;4994653;28;45628;-71
2022/11/05 03:54:16;;;;;;;;;7.00;7.00;;;;;9.97;66.92;101377.69;4963253;28;45639;-71
2022/11/05 03:57:05;;;;;;;;;10.67;7.33;;;;;10.32;67.13;101425.34;4979274;28;45191;-72
2022/11/05 03:59:37;;;;;;;;;7.00;7.00;;;;;9.79;67.11;101374.69;4979471;28;45521;-71
2022/11/05 04:02:02;;;;;;;;;11.00;8.33;;;;;10.31;67.55;101455.53;4994102;28;45548;-72
2022/11/05 04:04:28;;;;;;;;;8.00;8.00;;;;;10.26;67.44;101452.41;4978498;28;45640;-70
2022/11/05 04:15:05;;;;;;;;;8.00;8.00;;;;;10.36;66.81;101443.56;4978817;28;45832;-72
2022/11/05 04:17:32;;;;;;;;;8.33;8.00;;;;;10.23;66.75;101420.78;4978832;28;45479;-71
2022/11/05 04:25:25;;;;;;;;;7.33;7.00;;;;;10.28;67.02;101426.56;4978632;28;45546;-71
2022/11/05 04:27:50;;;;;;;;;9.00;8.33;;;;;10.51;66.78;101468.03;4977276;28;45497;-72
2022/11/05 04:30:17;;;;;;;;;9.33;9.00;;;;;10.33;66.46;101421.69;4977000;28;45280;-73
2022/11/05 04:32:53;;;;;;;;;11.33;8.33;;;;;10.33;66.80;101416.38;4993444;28;45617;-72
2022/11/05 04:35:18;;;;;;;;;11.00;9.00;;;;;10.46;66.41;101445.47;4976206;28;48594;-71
2022/11/05 04:37:44;;;;;;;;;9.67;9.67;;;;;10.42;66.78;101430.75;4993474;28;45299;-72
2022/11/05 04:40:09;;;;;;;;;7.00;7.00;;;;;10.07;66.59;101384.78;4978177;28;45961;-71
2022/11/05 04:42:34;;;;;;;;;9.33;7.33;;;;;9.11;66.67;101219.19;4979202;28;45272;-73
2022/11/05 04:45:00;;;;;;;;;8.33;7.33;;;;;10.24;66.57;101401.22;4978419;28;47225;-72
2022/11/05 04:47:25;;;;;;;;;11.00;9.67;;;;;10.02;66.30;101365.75;4993136;28;60821;-70
2022/11/05 04:49:50;;;;;;;;;7.67;7.67;;;;;10.48;66.18;101435.56;4978997;28;45273;-71
2022/11/05 04:52:16;;;;;;;;;6.00;6.00;;;;;10.51;65.84;101436.13;4979151;28;45262;-72
2022/11/05 04:54:42;;;;;;;;;6.33;5.00;;;;;10.58;66.36;101441.78;4976898;28;47878;-72
2022/11/05 04:57:07;;;;;;;;;9.00;9.00;;;;;10.42;65.84;101426.28;4978206;28;45330;-71
2022/11/05 04:59:33;;;;;;;;;7.67;7.33;;;;;10.50;66.27;101441.59;4993407;28;45286;-72
2022/11/05 05:01:58;;;;;;;;;7.00;7.00;;;;;10.47;66.31;101434.72;4978130;28;45302;-72
2022/11/05 05:04:23;;;;;;;;;11.33;7.00;;;;;10.63;66.07;101467.03;4976862;28;57856;-70
2022/11/05 05:06:48;;;;;;;;;7.00;7.00;;;;;10.57;66.21;101483.47;4992887;28;45349;-73
2022/11/05 05:09:14;;;;;;;;;6.00;6.00;;;;;10.42;66.27;101463.50;4978027;28;46179;-71
2022/11/05 05:11:39;;;;;;;;;8.00;7.67;;;;;10.47;65.99;101495.00;4993506;28;45319;-72
2022/11/05 05:14:05;;;;;;;;;8.33;8.33;;;;;10.30;66.04;101456.50;4977840;28;46349;-72
2022/11/05 05:16:30;;;;;;;;;5.00;5.00;;;;;10.38;66.66;101472.66;4977879;28;45346;-73
2022/11/05 05:18:55;;;;;;;;;6.00;6.00;;;;;10.41;65.99;101480.41;4977934;28;45440;-73
2022/11/05 05:21:41;;;;;;;;;8.00;8.00;;;;;10.21;66.04;101458.09;4978335;28;45339;-71
2022/11/05 05:24:17;;;;;;;;;8.67;7.67;;;;;10.41;66.20;101471.56;4977814;28;46107;-72
2022/11/05 05:26:48;;;;;;;;;5.67;5.67;;;;;10.39;65.72;101463.72;4977509;28;45517;-72
2022/11/05 05:29:14;;;;;;;;;7.00;7.00;;;;;10.13;66.27;101417.13;4977875;28;45492;-71
2022/11/05 05:31:40;;;;;;;;;9.00;6.67;;;;;10.51;66.28;101476.03;4992962;28;45417;-73
2022/11/05 05:34:07;;;;;;;;;9.00;8.00;;;;;10.55;65.97;101480.09;4975785;28;47378;-70
2022/11/05 05:36:33;;;;;;;;;9.67;9.00;;;;;10.20;65.92;101440.41;4977574;28;45234;-72
2022/11/05 05:38:58;;;;;;;;;8.00;8.00;;;;;10.33;65.97;101480.19;4977149;28;45284;-70
2022/11/05 05:41:24;;;;;;;;;11.33;9.00;;;;;9.67;66.28;101381.00;4978193;28;45227;-72
2022/11/05 05:43:49;;;;;;;;;7.33;5.67;;;;;10.38;66.57;101483.28;4977514;28;46297;-73
2022/11/05 05:46:17;;;;;;;;;8.00;7.67;;;;;9.66;66.17;101374.84;4977416;28;45216;-72
2022/11/05 05:48:47;;;;;;;;;7.67;7.67;;;;;10.30;66.65;101491.91;4977928;28;45558;-70
2022/11/05 05:51:12;;;;;;;;;9.00;7.00;;;;;10.27;66.93;101494.81;4992662;28;45553;-71
2022/11/05 05:53:38;;;;;;;;;7.67;7.67;;;;;9.89;66.89;101442.06;4977357;28;45500;-72
2022/11/05 05:56:04;;;;;;;;;6.00;6.00;;;;;10.19;67.20;101491.03;4975913;28;45813;-72
2022/11/05 05:58:38;;;;;;;;;9.00;8.67;;;;;10.06;67.02;101454.84;4976106;28;45319;-71
2022/11/05 06:01:06;;;;;;;;;7.67;5.67;;;;;10.20;67.17;101474.97;4977558;28;45571;-71
2022/11/05 06:03:33;;;;;;;;;5.00;3.67;;;;;10.26;66.67;101494.94;4975263;28;48526;-72
2022/11/05 06:06:04;;;;;;;;;8.67;6.00;;;;;10.15;67.47;101482.47;4977158;28;45365;-73
2022/11/05 06:08:29;;;;;;;;;6.33;6.33;;;;;9.89;66.96;101450.03;4992290;28;45433;-71
2022/11/05 06:10:55;;;;;;;;;8.67;8.67;;;;;10.04;67.43;101487.81;4977532;28;45584;-72
2022/11/05 06:13:20;;;;;;;;;7.00;7.00;;;;;9.24;67.29;101346.41;4977386;28;46112;-72
2022/11/05 06:15:45;;;;;;;;;6.00;6.00;;;;;9.99;67.65;101468.72;4977029;28;45544;-73
2022/11/05 06:18:11;;;;;;;;;6.67;6.00;;;;;9.06;67.48;101314.22;4976803;28;45629;-75
2022/11/05 06:20:36;;;;;;;;;7.67;7.67;;;;;8.53;67.13;101237.03;4992650;28;45173;-72
2022/11/05 06:23:01;;;;;;;;;5.33;5.00;;;;;10.12;67.24;101513.75;4977084;28;45567;-71
2022/11/05 06:25:27;;;;;;;;;6.00;5.00;;;;;9.77;67.65;101464.25;4991994;28;45419;-72
2022/11/05 06:27:52;;;;;;;;;5.67;5.67;;;;;10.11;67.77;101507.59;4977755;28;45313;-71
2022/11/05 06:30:19;;;;;;;;;8.00;6.00;;;;;9.53;67.31;101394.53;4978658;28;45406;-71
2022/11/05 06:32:45;;;;;;;;;6.67;6.67;;;;;10.06;67.85;101488.53;4977627;28;45736;-73
2022/11/05 06:35:10;;;;;;;;;6.67;6.33;;;;;10.21;67.31;101523.66;4976630;28;46208;-71
2022/11/05 06:37:35;;;;;;;;;9.33;7.67;;;;;9.57;67.42;101406.59;4978655;28;45517;-72
2022/11/05 06:40:01;;;;;;;;;10.00;7.67;;;;;10.25;67.30;101525.97;4979368;28;45590;-71
2022/11/05 06:42:26;;;;;;;;;5.67;5.67;;;;;9.86;67.62;101450.28;4978745;28;45426;-72
2022/11/05 06:44:52;;;;;;;;;7.00;7.00;;;;;10.10;67.27;101486.47;4977605;28;45330;-72
2022/11/05 06:47:18;;;;;;;;;9.33;8.00;;;;;10.06;67.47;101484.06;4992407;28;45454;-73
2022/11/05 06:49:44;;;;;;;;;7.00;5.33;;;;;10.10;67.50;101483.81;4977353;28;45168;-72
2022/11/05 06:52:09;;;;;;;;;7.00;7.00;;;;;10.20;67.17;101511.31;4976983;28;45950;-72
2022/11/05 06:54:35;;;;;;;;;6.33;6.00;;;;;10.30;67.12;101531.78;4978273;28;45421;-70
2022/11/05 06:57:00;;;;;;;;;7.00;7.00;;;;;10.06;67.32;101497.34;4980753;28;45432;-71
2022/11/05 06:59:25;;;;;;;;;9.00;8.00;;;;;10.18;67.28;101495.50;4979396;28;45255;-71
2022/11/05 07:01:51;;;;;;;;;7.00;6.00;;;;;10.11;67.20;101480.19;4995200;28;48171;-71
2022/11/05 07:04:16;;;;;;;;;8.00;7.00;;;;;10.38;67.29;101519.66;4979955;28;45238;-73
2022/11/05 07:06:41;;;;;;;;;6.33;6.33;;;;;10.52;66.69;101524.72;4980334;28;45459;-73
2022/11/05 07:09:07;;;;;;;;;9.33;6.33;;;;;9.88;66.67;101405.00;4980029;28;45357;-72
2022/11/05 07:11:32;;;;;;;;;5.00;5.00;;;;;10.36;66.89;101493.22;4979880;28;45830;-73
2022/11/05 07:13:59;;;;;;;;;6.67;6.67;;;;;10.58;66.41;101542.81;4980045;28;45331;-71
2022/11/05 07:16:25;;;;;;;;;7.67;6.67;;;;;10.68;66.17;101548.25;4980200;28;45408;-73
2022/11/05 07:18:51;;;;;;;;;6.00;6.00;;;;;10.64;66.03;101521.91;4995250;28;45464;-72
2022/11/05 07:21:18;;;;;;;;;8.67;7.00;;;;;10.29;66.20;101458.31;4980432;28;46399;-73
2022/11/05 07:23:44;;;;;;;;;5.00;5.00;;;;;10.52;66.42;101493.66;4980800;28;45469;-73
2022/11/05 07:26:09;;;;;;;;;11.00;8.33;;;;;9.95;66.24;101393.75;4996474;28;45374;-73
2022/11/05 07:28:34;;;;;;;;;6.00;4.33;;;;;10.60;65.65;101485.03;4980274;28;45514;-73
2022/11/05 07:31:00;;;;;;;;;7.00;7.00;;;;;10.93;65.47;101531.97;4980063;28;45726;-73
2022/11/05 07:33:25;;;;;;;;;12.67;7.67;;;;;10.93;65.38;101553.25;4979594;28;45465;-73
2022/11/05 07:35:50;;;;;;;;;9.00;7.00;;;;;10.29;66.08;101430.91;4979975;28;45225;-73
2022/11/05 07:38:16;;;;;;;;;6.33;6.33;;;;;10.63;65.74;101477.69;4995303;28;45859;-74
2022/11/05 07:40:41;;;;;;;;;7.00;7.00;;;;;10.37;65.38;101439.06;4981042;28;45641;-73
2022/11/05 07:43:07;;;;;;;;;7.33;7.33;;;;;10.82;65.32;101529.34;4979796;28;45199;-75
2022/11/05 07:45:32;;;;;;;;;8.33;6.67;;;;;11.05;65.21;101568.22;4978131;28;45353;-73
2022/11/05 07:48:00;;;;;;;;;10.00;8.67;;;;;10.99;65.19;101574.00;4979872;28;45286;-74
2022/11/05 07:50:30;;;;;;;;;5.33;5.00;;;;;10.27;65.20;101436.34;4978214;28;47651;-71
2022/11/05 07:53:01;;;;;;;;;5.00;5.00;;;;;11.03;65.10;101562.16;4994374;28;45492;-74
2022/11/05 07:55:26;;;;;;;;;9.00;8.00;;;;;11.10;65.12;101552.69;4977519;28;45465;-71
2022/11/05 07:57:51;;;;;;;;;8.33;7.00;;;;;11.02;64.87;101541.84;4960536;28;45247;-72
2022/11/05 08:00:19;;;;;;;;;7.67;6.67;;;;;11.14;64.77;101578.06;4975088;28;46485;-72
2022/11/05 08:02:56;;;;;;;;;10.33;9.00;;;;;11.20;64.53;101560.75;4976083;28;45541;-73
2022/11/05 08:05:21;;;;;;;;;9.00;7.33;;;;;11.19;64.38;101524.47;4974317;28;45378;-75
2022/11/05 08:07:47;;;;;;;;;6.67;6.67;;;;;11.37;63.96;101533.56;4992204;28;45515;-73
2022/11/05 08:10:12;;;;;;;;;8.67;6.67;;;;;11.85;63.40;101555.19;4978696;28;46277;-73
2022/11/05 08:12:37;;;;;;;;;7.00;6.33;;;;;11.33;62.49;101406.16;4978714;28;45460;-73
2022/11/05 08:15:03;;;;;;;;;8.33;7.00;;;;;12.50;61.54;101537.06;4980011;28;45507;-72
2022/11/05 08:17:28;;;;;;;;;5.33;5.33;;;;;13.07;60.08;101557.63;4978002;28;45651;-73
2022/11/05 08:19:54;;;;;;;;;9.33;9.33;;;;;13.28;59.22;101559.34;4978560;28;45826;-73
2022/11/05 08:22:19;;;;;;;;;10.33;7.33;;;;;13.13;58.57;101504.66;4977093;28;45501;-80
2022/11/05 08:24:45;;;;;;;;;12.67;10.00;;;;;13.66;58.77;101571.81;4979636;28;45313;-75
2022/11/05 08:27:10;;;;;;;;;8.00;7.00;;;;;13.66;57.49;101556.63;4995642;28;45481;-74
2022/11/05 08:29:35;;;;;;;;;9.67;9.00;;;;;13.11;57.65;101494.13;4969542;28;47529;-73
2022/11/05 08:32:01;;;;;;;;;8.67;8.67;;;;;13.43;58.01;101568.63;4958360;28;45465;-74
2022/11/05 08:34:26;;;;;;;;;11.33;11.33;;;;;12.53;58.46;101429.25;4980484;28;45418;-72
2022/11/05 08:36:51;;;;;;;;;8.00;8.00;;;;;13.20;58.76;101573.38;4979178;28;45476;-74
2022/11/05 08:39:17;;;;;;;;;7.67;7.67;;;;;12.95;59.01;101532.03;4979493;28;46233;-74
2022/11/05 08:41:43;;;;;;;;;8.00;8.00;;;;;13.13;58.95;101563.38;4980198;28;45397;-75
2022/11/05 08:44:09;;;;;;;;;6.00;6.00;;;;;13.14;59.06;101525.03;4996070;28;45455;-76
2022/11/05 08:46:35;;;;;;;;;8.00;7.67;;;;;13.62;57.18;101498.28;4979796;28;45357;-74
2022/11/05 08:49:01;;;;;;;;;6.67;5.67;;;;;14.09;56.51;101538.31;4977950;28;46430;-73
2022/11/05 08:51:27;;;;;;;;;9.33;7.33;;;;;13.87;56.14;101464.69;4977752;28;45397;-75
2022/11/05 08:53:52;;;;;;;;;9.33;7.00;;;;;13.64;55.71;101425.00;4979147;28;45505;-75
2022/11/05 08:56:18;;;;;;;;;9.33;9.33;;;;;15.67;54.18;101577.97;4995800;28;45279;-71
2022/11/05 08:58:43;;;;;;;;;7.67;6.00;;;;;15.94;51.95;101524.16;4977565;28;48591;-73
2022/11/05 09:01:09;;;;;;;;;8.33;6.33;;;;;16.04;51.67;101589.28;4978611;28;45294;-72
2022/11/05 09:03:34;;;;;;;;;8.33;6.00;;;;;15.82;52.07;101600.53;4977070;28;45386;-73
2022/11/05 09:06:00;;;;;;;;;7.00;7.00;;;;;15.70;52.48;101589.22;4990328;28;45288;-73
2022/11/05 09:08:25;;;;;;;;;6.67;6.33;;;;;15.02;52.85;101494.38;4959211;28;46520;-72
2022/11/05 09:10:51;;;;;;;;;8.00;8.00;;;;;15.16;53.07;101526.78;4962351;28;45473;-72
2022/11/05 09:13:16;;;;;;;;;8.67;6.00;;;;;15.15;53.20;101549.22;4992750;28;45227;-75
2022/11/05 09:15:42;;;;;;;;;8.33;4.00;;;;;15.14;53.32;101552.88;4980765;28;45326;-73
2022/11/05 09:18:11;;;;;;;;;8.33;7.00;;;;;15.18;53.48;101564.13;4980819;28;45471;-75
2022/11/05 09:20:38;;;;;;;;;11.00;7.67;;;;;15.03;53.85;101571.88;4979019;28;45518;-74
2022/11/05 09:23:04;;;;;;;;;7.67;6.33;;;;;14.96;54.32;101567.28;4979717;28;45482;-72
2022/11/05 09:25:31;;;;;;;;;8.00;6.67;;;;;14.75;54.29;101547.00;4977545;28;45595;-72
2022/11/05 09:28:10;;;;;;;;;4.33;4.33;;;;;13.79;55.13;101416.47;4976780;28;45786;-72
2022/11/05 09:30:44;;;;;;;;;8.00;8.00;;;;;14.34;55.06;101521.59;4980438;28;45613;-73
2022/11/05 09:33:09;;;;;;;;;5.00;5.00;;;;;13.90;55.48;101467.06;4971100;28;45293;-72
2022/11/05 09:35:39;;;;;;;;;4.00;4.00;;;;;14.19;55.27;101507.03;4977900;28;45535;-71
2022/11/05 09:38:05;;;;;;;;;6.00;6.00;;;;;13.31;55.50;101394.31;4977173;28;46187;-74
2022/11/05 09:40:36;;;;;;;;;5.33;5.33;;;;;13.94;55.54;101457.75;4975810;28;45574;-72
2022/11/05 09:43:03;;;;;;;;;8.00;7.67;;;;;14.61;55.57;101555.53;4977073;28;45529;-71
2022/11/05 09:45:37;;;;;;;;;8.67;8.33;;;;;14.44;55.48;101510.88;4980623;28;44822;-72
2022/11/05 09:48:31;;;;;;;;;7.67;6.33;;;;;14.84;55.29;101556.81;4979209;28;45865;-73
2022/11/05 09:50:57;;;;;;;;;5.33;5.33;;;;;14.71;54.94;101513.50;4977987;28;45342;-71
2022/11/05 09:53:23;;;;;;;;;4.67;4.33;;;;;14.36;54.22;101444.69;4978837;28;45503;-72
2022/11/05 09:55:59;;;;;;;;;4.33;4.33;;;;;15.08;54.70;101568.75;4978351;28;45302;-71
2022/11/05 09:58:34;;;;;;;;;5.00;5.00;;;;;15.04;54.37;101562.00;4972020;28;47037;-73
2022/11/05 10:01:03;;;;;;;;;8.67;7.33;;;;;14.80;54.78;101523.28;4974832;28;45370;-73
2022/11/05 10:03:29;;;;;;;;;4.33;4.33;;;;;14.90;55.00;101552.66;4977384;28;45576;-72
2022/11/05 10:06:06;;;;;;;;;4.00;3.67;;;;;15.13;54.83;101566.44;4978924;28;45310;-73
2022/11/05 10:08:38;;;;;;;;;4.00;4.00;;;;;15.13;54.94;101569.13;4996082;28;47803;-73
2022/11/05 10:11:11;;;;;;;;;2.67;1.00;;;;;15.01;53.50;101525.66;4979074;28;45348;-72
2022/11/05 10:13:40;;;;;;;;;2.67;1.67;;;;;15.24;53.43;101557.34;4979317;28;45536;-74
2022/11/05 10:16:28;;;;;;;;;2.00;1.00;;;;;15.21;53.17;101559.31;4976799;28;45495;-74
2022/11/05 10:19:00;;;;;;;;;1.00;1.00;;;;;14.85;52.92;101501.44;4958601;28;45625;-74
2022/11/05 10:21:25;;;;;;;;;3.00;2.00;;;;;15.22;53.22;101549.47;4979417;28;45272;-73
2022/11/05 10:23:51;;;;;;;;;0.00;0.00;;;;;14.96;52.89;101511.03;4991666;28;45566;-73
2022/11/05 10:26:23;;;;;;;;;2.00;2.00;;;;;15.12;53.00;101535.28;4974798;28;45413;-71
2022/11/05 10:28:50;;;;;;;;;10.67;8.67;;;;;14.26;52.54;101403.81;4976070;28;46006;-70
2022/11/05 10:31:19;;;;;;;;;1.00;1.00;;;;;14.38;52.64;101428.50;4978224;28;45535;-72
2022/11/05 10:33:48;;;;;;;;;4.33;3.00;;;;;15.17;53.22;101562.44;4975122;28;45458;-75
2022/11/05 10:36:24;;;;;;;;;3.67;2.00;;;;;14.37;52.91;101440.19;4979553;28;45329;-79
2022/11/05 10:38:51;;;;;;;;;3.67;3.67;;;;;15.00;52.98;101549.91;4980900;28;45314;-70
2022/11/05 10:41:32;;;;;;;;;2.00;1.33;;;;;15.11;53.51;101568.44;4994100;28;45443;-72
2022/11/05 10:44:39;;;;;;;;;2.00;1.67;;;;;15.11;53.58;101563.06;4976595;28;45340;-69
2022/11/05 10:47:19;;;;;;;;;1.33;1.33;;;;;15.12;53.69;101570.94;4978459;28;45678;-70
2022/11/05 10:49:50;;;;;;;;;9.33;6.33;;;;;15.02;54.10;101569.38;4977846;28;46749;-69
2022/11/05 10:52:27;;;;;;;;;8.00;4.00;;;;;14.88;54.68;101562.69;4976803;28;45418;-71
2022/11/05 10:54:56;;;;;;;;;2.00;2.00;;;;;14.67;54.94;101540.72;4978718;28;45383;-72
2022/11/05 10:57:34;;;;;;;;;2.00;2.00;;;;;14.58;55.07;101540.63;4980506;28;45294;-73
2022/11/05 11:00:15;;;;;;;;;2.00;1.67;;;;;14.81;54.92;101567.78;4995346;28;47962;-70
2022/11/05 11:02:42;;;;;;;;;1.33;1.00;;;;;12.19;55.10;101123.06;4978871;28;45398;-69
2022/11/05 11:05:10;;;;;;;;;1.67;1.67;;;;;14.86;55.27;101576.22;4995236;28;45262;-72
2022/11/05 11:07:36;;;;;;;;;2.67;2.67;;;;;14.62;55.28;101546.53;4980630;28;45599;-70
2022/11/05 11:10:02;;;;;;;;;2.00;2.00;;;;;14.23;55.77;101487.03;4979777;28;45714;-72
2022/11/05 11:12:41;;;;;;;;;3.00;3.00;;;;;14.46;55.93;101511.56;4978442;28;45340;-69
2022/11/05 11:15:14;;;;;;;;;10.67;9.00;;;;;14.05;56.60;101430.84;4995680;28;45343;-71
2022/11/05 11:17:39;;;;;;;;;2.33;2.33;;;;;14.79;56.58;101561.75;4995550;28;45472;-73
2022/11/05 11:20:19;;;;;;;;;3.67;2.67;;;;;13.68;56.43;101370.25;4979390;28;45480;-70
2022/11/05 11:23:15;;;;;;;;;3.67;2.33;;;;;14.82;56.11;101548.09;4979382;28;45212;-69
2022/11/05 11:25:51;;;;;;;;;3.00;3.00;;;;;14.73;56.40;101548.97;4971042;28;45303;-70
2022/11/05 11:28:39;;;;;;;;;4.33;3.00;;;;;14.65;56.60;101530.16;4980126;28;45500;-71
2022/11/05 11:31:10;;;;;;;;;3.33;3.33;;;;;13.87;56.37;101389.84;4979483;28;46506;-69
2022/11/05 11:33:37;;;;;;;;;2.67;2.67;;;;;14.84;56.47;101545.25;4978836;28;45451;-72
2022/11/05 11:36:05;;;;;;;;;4.67;4.00;;;;;14.53;56.41;101489.38;4982583;28;44845;-72
2022/11/05 11:38:33;;;;;;;;;2.67;2.67;;;;;14.90;56.50;101540.13;4981646;28;45485;-72
2022/11/05 11:41:22;;;;;;;;;3.00;3.00;;;;;14.88;56.55;101542.13;4981562;28;45811;-71
2022/11/05 11:43:55;;;;;;;;;2.67;2.67;;;;;14.89;56.52;101543.78;4974890;28;45473;-70
2022/11/05 11:46:20;;;;;;;;;4.00;4.00;;;;;14.45;56.43;101448.34;4979976;28;45541;-70
2022/11/05 11:48:48;;;;;;;;;4.33;3.33;;;;;14.99;55.57;101542.88;4980375;28;45338;-72
2022/11/05 11:51:43;;;;;;;;;5.67;4.00;;;;;15.10;56.11;101518.53;4978171;28;48275;-70
2022/11/05 11:54:20;;;;;;;;;6.00;6.00;;;;;15.02;55.92;101505.94;4980121;28;45559;-72
2022/11/05 11:56:47;;;;;;;;;3.00;3.00;;;;;14.45;55.33;101405.53;4979512;28;45351;-71
2022/11/05 11:59:38;;;;;;;;;4.33;2.67;;;;;15.23;55.23;101519.00;4979842;28;45478;-71
2022/11/05 12:02:29;;;;;;;;;3.33;1.00;;;;;15.29;55.58;101531.75;4975020;28;47709;-70
2022/11/05 12:05:24;;;;;;;;;2.67;2.00;;;;;15.25;55.35;101522.34;4979729;28;45409;-71
2022/11/05 12:07:56;;;;;;;;;4.00;4.00;;;;;15.04;55.53;101500.41;4979606;28;45481;-70
2022/11/05 12:10:43;;;;;;;;;3.00;3.00;;;;;15.27;55.29;101522.19;4979746;28;45512;-71
2022/11/05 12:13:17;;;;;;;;;2.33;2.33;;;;;15.39;55.42;101523.59;4979314;28;45637;-72